Impacts TAF Board
For situational awareness. Not to be used for flight planning purposes.
IDs:

KCNM - Carlsbad/Cavern City, NM, US

Issued at 1123 UTC 30 Oct 2020
Updated at 1631 UTC 30 Oct 2020
Potential Impact None Slight Moderate High
Time1553Z 30/17Z 30/18Z 30/19Z 30/20Z 30/21Z 30/22Z 30/23Z 31/00Z 31/01Z 31/02Z 31/03Z 31/04Z 31/05Z>>
Type OBS PRVL PRVL PRVL PRVL PRVL PRVL PRVL PRVL PRVL PRVL PRVL PRVL PRVL
VIS 10 >6 >6 >6 >6 >6 >6 >6 >6 >6 >6 >6 >6 >6
CIG -- -- -- -- -- -- -- -- -- -- -- -- -- --
Cover CLR FEW FEW FEW FEW FEW FEW FEW FEW FEW FEW FEW FEW FEW
FltCat VFR VFR VFR VFR VFR VFR VFR VFR VFR VFR VFR VFR VFR VFR
WX -- -- -- -- -- -- -- -- -- -- -- -- -- --
WDir 100 140 140 140 140 140 140 140 140 140 140 140 140 140
WSpd 6 9 9 9 9 9 9 9 9 9 9 9 9 9
WGst -- -- -- -- -- -- -- -- -- -- -- -- -- --
Raw TAF
KCNM 301123Z 3012/3112 21005KT P6SM FEW250
  FM301500 14009KT P6SM FEW250


Raw METAR
KCNM 301553Z AUTO 10006KT 10SM CLR 11/02 A3029 RMK AO2 SLP239 T01110017
KCNM 301453Z AUTO 15003KT 10SM CLR 07/01 A3030 RMK AO2 SLP245 T00720006 53011
KCNM 301353Z AUTO 21004KT 10SM CLR 01/M01 A3028 RMK AO2 SLP246 T00111011

METAR Board
Radar Display
Forecast Discussion
For situational awareness. Not to be used for flight planning purposes.